Verona Landing, California
Current Conditions -  °F | °C
As of 11:53 AM on Tuesday 25 Nov 2014 (Local Time) from KSMF Reporting Station
Few Clouds Few Clouds  
Wind Chill: 59°   Ceiling: Unl
Heat Index: 59°   Visibility: 10mi
Dew Point: 45°   Wind: 7mph
Humidity: 60%   Direction: 330°NNW
Pressure: 30.46"   Gusts: NA
Location:  38.8689°N, 121.569°W
Report Text: KSMF 251953Z 33006KT 10SM FEW260 15/07 A3046 RMK AO2 SLP312 T01500072
Loading
Personal Weather Stations






























Interactive Weather Map New forecast layout! Learn more

10-Day Weather Forecast

Advertisements
Track Severe Weather on mobile